createdAt,value
2017-11-23T19:00:35.822Z,9.27
2017-11-23T19:03:03.708Z,8.30
2017-11-23T19:05:31.981Z,8.60
2017-11-23T19:07:59.613Z,8.73
2017-11-23T19:10:27.437Z,11.20
2017-11-23T19:12:56.085Z,10.43
2017-11-23T19:15:23.664Z,8.83
2017-11-23T19:17:51.401Z,7.50
2017-11-23T19:20:19.879Z,8.27
2017-11-23T19:22:47.937Z,8.13
2017-11-23T19:25:17.819Z,8.23
2017-11-23T19:27:47.418Z,8.63
2017-11-23T19:30:22.385Z,10.17
2017-11-23T19:32:50.125Z,10.90
2017-11-23T19:35:22.622Z,9.27
2017-11-23T19:37:51.205Z,9.47
2017-11-23T19:40:19.518Z,11.10
2017-11-23T19:42:47.533Z,11.30
2017-11-23T19:45:15.197Z,11.90
2017-11-23T19:47:42.834Z,11.67
2017-11-23T19:50:10.504Z,13.73
2017-11-23T19:52:38.260Z,12.90
2017-11-23T19:55:06.270Z,12.80
2017-11-23T19:57:33.922Z,11.77
2017-11-23T20:00:01.590Z,11.90
2017-11-23T20:02:29.277Z,12.40
2017-11-23T20:04:56.893Z,12.87
2017-11-23T20:07:24.607Z,13.47
2017-11-23T20:12:26.002Z,13.20
2017-11-23T20:14:53.542Z,12.43
2017-11-23T20:17:21.149Z,14.00
2017-11-23T20:19:48.776Z,16.70
2017-11-23T20:22:16.441Z,16.57
2017-11-23T20:24:44.116Z,16.40
2017-11-23T20:27:11.787Z,17.90
2017-11-23T20:29:39.343Z,17.40
2017-11-23T20:32:08.982Z,18.10
2017-11-23T20:34:36.640Z,15.93
2017-11-23T20:37:04.260Z,17.23
2017-11-23T20:39:31.887Z,18.40
2017-11-23T20:41:59.488Z,17.93
2017-11-23T20:44:27.233Z,14.90
2017-11-23T20:46:55.050Z,17.83
2017-11-23T20:49:24.401Z,15.87
2017-11-23T20:51:52.157Z,17.40
2017-11-23T20:54:19.859Z,17.07
2017-11-23T20:56:47.513Z,15.20
2017-11-23T20:59:15.472Z,13.47
2017-11-23T21:01:44.346Z,15.20
2017-11-23T21:04:12.095Z,14.30
2017-11-23T21:06:39.917Z,17.77
2017-11-23T21:09:07.595Z,16.70
2017-11-23T21:11:35.765Z,19.37
2017-11-23T21:16:53.989Z,18.67
2017-11-23T21:19:23.292Z,16.57
2017-11-23T21:21:51.620Z,14.60
2017-11-23T21:24:19.458Z,16.50
2017-11-23T21:26:47.637Z,20.10
2017-11-23T21:29:15.522Z,20.93
2017-11-23T21:31:43.655Z,19.83
2017-11-23T21:34:12.263Z,19.03
2017-11-23T21:36:40.197Z,17.00
2017-11-23T21:39:07.930Z,17.77
2017-11-23T21:41:35.868Z,17.57
2017-11-23T21:44:03.704Z,15.50
2017-11-23T21:46:31.640Z,16.80
2017-11-23T21:49:00.355Z,14.70
2017-11-23T21:51:28.629Z,14.93
2017-11-23T21:53:56.476Z,12.97
2017-11-23T21:56:24.188Z,14.23
2017-11-23T21:58:52.183Z,14.00
2017-11-23T22:01:23.884Z,13.00
2017-11-23T22:03:52.598Z,13.50
2017-11-23T22:06:23.156Z,13.70
2017-11-23T22:08:51.014Z,19.47
2017-11-23T22:11:19.118Z,14.60
2017-11-23T22:13:47.612Z,13.37
2017-11-23T22:16:15.463Z,15.00
2017-11-23T22:18:43.827Z,12.77
2017-11-23T22:21:11.573Z,9.80
2017-11-23T22:23:39.458Z,11.33
2017-11-23T22:26:07.123Z,11.20
2017-11-23T22:28:35.016Z,12.80
2017-11-23T22:31:04.082Z,11.37
2017-11-23T22:33:32.918Z,9.70
2017-11-23T22:36:00.675Z,10.40
2017-11-23T22:38:29.334Z,10.40
2017-11-23T22:40:57.116Z,9.70
2017-11-23T22:43:24.986Z,9.63
2017-11-23T22:45:52.866Z,10.03
2017-11-23T22:48:20.885Z,11.47
2017-11-23T22:50:50.619Z,9.23
2017-11-23T22:53:19.075Z,9.30
2017-11-23T22:55:48.782Z,11.00
2017-11-23T22:58:17.270Z,9.27
2017-11-23T23:00:48.176Z,8.83
2017-11-23T23:06:06.749Z,8.40
2017-11-23T23:08:36.641Z,9.10
2017-11-23T23:11:05.221Z,8.20
2017-11-23T23:13:33.255Z,8.80
2017-11-23T23:16:00.949Z,8.13
2017-11-23T23:18:28.652Z,8.07
2017-11-23T23:20:56.256Z,8.43
2017-11-23T23:23:25.818Z,8.80
2017-11-23T23:25:53.602Z,8.70
2017-11-23T23:28:21.804Z,10.70
2017-11-23T23:30:50.936Z,10.10
2017-11-23T23:33:18.818Z,8.20
2017-11-23T23:35:46.951Z,6.77
2017-11-23T23:38:14.672Z,8.40
2017-11-23T23:40:42.248Z,8.17
2017-11-23T23:43:09.897Z,8.10
2017-11-23T23:45:45.403Z,9.27
2017-11-23T23:48:15.570Z,8.50
2017-11-23T23:50:44.408Z,8.67
2017-11-23T23:53:14.924Z,8.70
2017-11-23T23:55:43.946Z,8.57
2017-11-23T23:58:11.899Z,9.13
